createdAt,value
2022-11-16T00:01:39.928Z,7.23
2022-11-16T00:04:07.563Z,7.17
2022-11-16T00:06:35.159Z,6.43
2022-11-16T00:09:23.159Z,6.20
2022-11-16T00:11:52.168Z,6.01
2022-11-16T00:14:20.686Z,6.02
2022-11-16T00:16:49.611Z,6.33
2022-11-16T00:19:17.205Z,6.59
2022-11-16T00:21:44.760Z,6.23
2022-11-16T00:24:14.737Z,6.02
2022-11-16T00:26:42.700Z,6.26
2022-11-16T00:29:14.934Z,6.87
2022-11-16T00:31:42.487Z,6.43
2022-11-16T00:34:11.426Z,7.05
2022-11-16T00:36:38.985Z,7.17
2022-11-16T00:39:06.675Z,7.45
2022-11-16T00:41:34.224Z,7.53
2022-11-16T00:44:01.757Z,7.54
2022-11-16T00:46:29.307Z,7.34
2022-11-16T00:48:56.924Z,7.54
2022-11-16T00:51:25.887Z,7.79
2022-11-16T00:53:53.430Z,7.08
2022-11-16T00:56:21.126Z,6.48
2022-11-16T00:58:48.688Z,6.87
2022-11-16T01:01:16.343Z,6.53
2022-11-16T01:03:43.924Z,6.63
2022-11-16T01:06:15.445Z,6.69
2022-11-16T01:08:45.633Z,6.60
2022-11-16T01:11:32.944Z,7.26
2022-11-16T01:14:02.990Z,6.82
2022-11-16T01:16:31.050Z,6.70
2022-11-16T01:18:58.980Z,6.71
2022-11-16T01:21:26.666Z,6.64
2022-11-16T01:23:56.974Z,6.52
2022-11-16T01:26:25.138Z,6.44
2022-11-16T01:28:52.988Z,6.97
2022-11-16T01:31:20.839Z,7.05
2022-11-16T01:33:48.410Z,7.41
2022-11-16T01:36:16.165Z,7.02
2022-11-16T01:38:44.119Z,6.46
2022-11-16T01:41:15.147Z,6.94
2022-11-16T01:43:54.713Z,7.10
2022-11-16T01:46:22.790Z,7.02
2022-11-16T01:48:53.100Z,7.22
2022-11-16T01:51:21.415Z,6.63
2022-11-16T01:53:49.050Z,6.58
2022-11-16T01:56:18.082Z,6.97
2022-11-16T01:58:46.459Z,7.31
2022-11-16T02:01:14.074Z,6.89
2022-11-16T02:03:42.264Z,7.20
2022-11-16T02:06:23.156Z,7.14
2022-11-16T02:09:22.597Z,6.91
2022-11-16T02:12:09.578Z,6.37
2022-11-16T02:14:54.471Z,6.27
2022-11-16T02:17:33.084Z,6.41
2022-11-16T02:20:40.325Z,6.75
2022-11-16T02:23:44.487Z,6.77
2022-11-16T02:26:33.393Z,6.98
2022-11-16T02:29:15.143Z,7.23
2022-11-16T02:31:50.323Z,7.90
2022-11-16T02:34:20.694Z,7.75
2022-11-16T02:36:51.335Z,7.67
2022-11-16T02:39:24.078Z,7.63
2022-11-16T02:41:53.885Z,7.95
2022-11-16T02:44:27.728Z,7.92
2022-11-16T02:47:00.260Z,7.79
2022-11-16T02:49:30.535Z,8.10
2022-11-16T02:52:00.264Z,8.22
2022-11-16T02:54:27.875Z,8.36
2022-11-16T02:56:58.474Z,7.78
2022-11-16T02:59:33.356Z,7.53
2022-11-16T03:02:09.463Z,7.35
2022-11-16T03:04:41.756Z,7.35
2022-11-16T03:07:14.808Z,7.58
2022-11-16T03:09:44.886Z,7.29
2022-11-16T03:12:20.287Z,7.08
2022-11-16T03:14:53.658Z,6.67
2022-11-16T03:17:26.285Z,6.32
2022-11-16T03:19:59.024Z,7.18
2022-11-16T03:22:32.206Z,6.97
2022-11-16T03:24:59.921Z,7.19
2022-11-16T03:27:36.149Z,7.56
2022-11-16T03:30:09.211Z,7.69
2022-11-16T03:32:44.499Z,7.72
2022-11-16T03:35:16.463Z,7.67
2022-11-16T03:37:46.770Z,7.67
2022-11-16T03:40:15.365Z,8.20
2022-11-16T03:42:44.480Z,8.40
2022-11-16T03:45:14.430Z,8.27
2022-11-16T03:47:42.485Z,7.51
2022-11-16T03:50:11.251Z,7.81
2022-11-16T03:52:38.909Z,8.00
2022-11-16T03:55:06.853Z,8.08
2022-11-16T03:57:34.401Z,8.35
2022-11-16T04:00:01.938Z,8.30
2022-11-16T04:02:30.788Z,7.79
2022-11-16T04:05:16.185Z,7.42
2022-11-16T04:08:01.726Z,7.08
2022-11-16T04:10:46.793Z,7.04
2022-11-16T04:13:41.665Z,7.58
2022-11-16T04:16:27.194Z,7.44
2022-11-16T04:19:13.972Z,6.88
2022-11-16T04:22:03.478Z,7.05
2022-11-16T04:24:35.798Z,7.36
2022-11-16T04:27:23.197Z,7.33
2022-11-16T04:29:50.943Z,7.98
2022-11-16T04:32:36.449Z,7.29
2022-11-16T04:35:23.198Z,7.32
2022-11-16T04:37:52.372Z,7.53
2022-11-16T04:40:22.385Z,7.71
2022-11-16T04:42:53.511Z,7.61
2022-11-16T04:45:38.806Z,7.03
2022-11-16T04:48:07.584Z,6.72
2022-11-16T04:50:36.830Z,6.86
2022-11-16T04:53:05.009Z,7.20
2022-11-16T04:55:32.612Z,6.72
2022-11-16T04:58:00.706Z,6.63
2022-11-16T05:00:28.413Z,6.43
2022-11-16T05:03:01.028Z,6.61
2022-11-16T05:05:29.333Z,5.90
2022-11-16T05:07:58.250Z,5.38
2022-11-16T05:10:25.774Z,5.79
2022-11-16T05:12:53.275Z,5.65
2022-11-16T05:15:20.852Z,5.80
2022-11-16T05:17:48.429Z,6.04
2022-11-16T05:20:33.678Z,6.34
2022-11-16T05:23:02.612Z,7.16
2022-11-16T05:25:35.276Z,7.38
2022-11-16T05:28:04.116Z,7.52
2022-11-16T05:30:31.667Z,7.48
2022-11-16T05:32:59.403Z,7.50
2022-11-16T05:35:26.943Z,8.10
2022-11-16T05:37:54.469Z,8.35
2022-11-16T05:40:23.320Z,8.44
2022-11-16T05:42:50.839Z,8.57
2022-11-16T05:45:20.992Z,8.72
2022-11-16T05:47:48.860Z,8.74
2022-11-16T05:50:17.047Z,8.82
2022-11-16T05:52:44.556Z,8.94
2022-11-16T05:55:12.061Z,9.09
2022-11-16T05:57:40.908Z,9.11
2022-11-16T06:00:10.074Z,9.08
2022-11-16T06:02:37.644Z,9.08
2022-11-16T06:05:05.526Z,9.13
2022-11-16T06:07:34.196Z,8.86
2022-11-16T06:10:01.789Z,8.82
2022-11-16T06:12:29.295Z,8.37
2022-11-16T06:14:58.146Z,8.23
2022-11-16T06:17:25.651Z,8.09
2022-11-16T06:19:53.157Z,8.07
2022-11-16T06:22:20.649Z,8.31
2022-11-16T06:24:48.162Z,8.03
2022-11-16T06:27:15.935Z,7.89
2022-11-16T06:29:43.445Z,7.59
2022-11-16T06:32:12.300Z,7.74
2022-11-16T06:34:39.832Z,7.80
2022-11-16T06:37:07.342Z,7.98
2022-11-16T06:39:34.887Z,8.15
2022-11-16T06:42:02.379Z,7.75
2022-11-16T06:44:29.910Z,8.08
2022-11-16T06:46:57.434Z,8.07
2022-11-16T06:49:26.328Z,8.17
2022-11-16T06:51:53.831Z,8.18
2022-11-16T06:54:21.366Z,8.22
2022-11-16T06:56:48.885Z,8.48
2022-11-16T06:59:20.505Z,8.36
2022-11-16T07:01:48.072Z,8.56
2022-11-16T07:04:15.887Z,8.11
2022-11-16T07:06:44.722Z,7.97
2022-11-16T07:09:12.341Z,7.81
2022-11-16T07:11:39.825Z,7.76
2022-11-16T07:14:07.328Z,7.67
2022-11-16T07:16:35.675Z,7.50
2022-11-16T07:19:03.379Z,7.26
2022-11-16T07:21:31.195Z,7.03
2022-11-16T07:24:00.049Z,7.27
2022-11-16T07:26:28.811Z,7.02
2022-11-16T07:28:56.335Z,7.22
2022-11-16T07:31:23.825Z,7.28
2022-11-16T07:33:52.412Z,7.20
2022-11-16T07:36:20.415Z,7.44
2022-11-16T07:38:48.203Z,7.66
2022-11-16T07:41:19.282Z,7.66
2022-11-16T07:43:52.585Z,7.75
2022-11-16T07:46:46.173Z,7.46
2022-11-16T07:49:11.554Z,7.11
2022-11-16T07:51:39.225Z,7.12
2022-11-16T07:54:07.164Z,7.16
2022-11-16T07:56:36.002Z,7.74
2022-11-16T07:59:03.530Z,8.22
2022-11-16T08:01:31.147Z,8.47
2022-11-16T08:03:58.678Z,8.41
2022-11-16T08:06:28.211Z,8.48
2022-11-16T08:08:58.720Z,8.41
2022-11-16T08:11:27.102Z,8.10
2022-11-16T08:13:56.723Z,7.80
2022-11-16T08:16:24.395Z,7.75
2022-11-16T08:18:51.872Z,7.73
2022-11-16T08:21:20.218Z,7.86
2022-11-16T08:23:47.854Z,8.03
2022-11-16T08:26:17.372Z,8.10
2022-11-16T08:28:46.883Z,8.13
2022-11-16T08:31:17.793Z,8.13
2022-11-16T08:33:45.782Z,8.29
2022-11-16T08:36:17.303Z,8.12
2022-11-16T08:38:45.362Z,8.07
2022-11-16T08:41:13.251Z,8.36
2022-11-16T08:43:41.207Z,8.38
2022-11-16T08:46:08.802Z,8.22
2022-11-16T08:48:38.207Z,8.29
2022-11-16T08:51:17.477Z,8.17
2022-11-16T08:53:47.911Z,8.05
2022-11-16T08:56:16.194Z,8.10
2022-11-16T08:58:46.703Z,8.10
2022-11-16T09:01:15.754Z,8.14
2022-11-16T09:03:45.233Z,8.39
2022-11-16T09:06:13.285Z,8.14
2022-11-16T09:08:42.587Z,8.52
2022-11-16T09:11:12.454Z,8.29
2022-11-16T09:13:40.416Z,8.19
2022-11-16T09:16:08.535Z,7.92
2022-11-16T09:18:37.050Z,8.19
2022-11-16T09:21:06.154Z,8.14
2022-11-16T09:23:33.702Z,8.40
2022-11-16T09:26:03.348Z,8.39
2022-11-16T09:28:31.014Z,8.61
2022-11-16T09:31:01.890Z,8.34
2022-11-16T09:33:31.342Z,8.82
2022-11-16T09:36:02.478Z,8.73
2022-11-16T09:38:54.287Z,9.03
2022-11-16T09:41:35.023Z,9.09
2022-11-16T09:44:13.242Z,9.08
2022-11-16T09:46:44.507Z,9.17
2022-11-16T09:49:17.864Z,9.24
2022-11-16T09:51:49.223Z,9.79
2022-11-16T09:54:21.584Z,9.73
2022-11-16T09:56:52.739Z,9.70
2022-11-16T09:59:24.647Z,9.65
2022-11-16T10:01:56.826Z,9.94
2022-11-16T10:04:36.786Z,10.21
2022-11-16T10:07:09.038Z,10.54
2022-11-16T10:09:37.995Z,10.38
2022-11-16T10:12:15.989Z,10.38
2022-11-16T10:15:15.527Z,10.59
2022-11-16T10:18:15.349Z,10.55
2022-11-16T10:21:00.426Z,9.98
2022-11-16T10:23:38.614Z,10.01
2022-11-16T10:26:23.923Z,9.63
2022-11-16T10:29:05.994Z,9.19
2022-11-16T10:31:54.086Z,9.65
2022-11-16T10:34:26.535Z,9.98
2022-11-16T10:36:58.795Z,10.13
2022-11-16T10:39:27.548Z,9.62
2022-11-16T10:42:06.063Z,9.73
2022-11-16T10:44:39.260Z,8.96
2022-11-16T10:47:13.194Z,9.20
2022-11-16T10:49:51.122Z,9.60
2022-11-16T10:52:18.687Z,9.66
2022-11-16T10:54:46.210Z,9.93
2022-11-16T10:57:15.118Z,9.89
2022-11-16T10:59:44.963Z,9.54
2022-11-16T11:02:33.507Z,9.13
2022-11-16T11:05:17.568Z,9.46
2022-11-16T11:07:52.983Z,9.43
2022-11-16T11:10:30.019Z,9.21
2022-11-16T11:13:23.577Z,9.49
2022-11-16T11:15:51.406Z,9.43
2022-11-16T11:18:25.826Z,9.15
2022-11-16T11:21:05.924Z,9.26
2022-11-16T11:23:43.474Z,9.18
2022-11-16T11:26:34.729Z,8.98
2022-11-16T11:29:16.734Z,9.21
2022-11-16T11:31:47.151Z,9.53
2022-11-16T11:34:18.747Z,9.74
2022-11-16T11:36:51.055Z,9.64
2022-11-16T11:39:31.294Z,9.34
2022-11-16T11:42:04.942Z,9.52
2022-11-16T11:44:39.514Z,9.94
2022-11-16T11:47:55.567Z,9.97
2022-11-16T11:50:14.470Z,10.29
2022-11-16T11:52:48.168Z,10.32
2022-11-16T11:55:18.610Z,10.50
2022-11-16T11:57:49.932Z,10.59
2022-11-16T12:00:19.390Z,11.04
2022-11-16T12:03:18.365Z,11.08
2022-11-16T12:05:58.820Z,11.32
2022-11-16T12:08:40.776Z,11.22
2022-11-16T12:11:15.912Z,11.65
2022-11-16T12:13:58.036Z,11.77
2022-11-16T12:16:33.580Z,11.65
2022-11-16T12:19:16.286Z,11.80
2022-11-16T12:21:53.004Z,11.73
2022-11-16T12:24:34.745Z,12.02
2022-11-16T12:27:16.392Z,12.32
2022-11-16T12:29:55.231Z,12.63
2022-11-16T12:32:38.399Z,12.78
2022-11-16T12:35:21.085Z,12.45
2022-11-16T12:38:00.630Z,12.36
2022-11-16T12:40:37.683Z,12.75
2022-11-16T12:43:12.233Z,12.61
2022-11-16T12:46:03.972Z,12.59
2022-11-16T12:48:57.321Z,12.66
2022-11-16T12:51:48.807Z,12.73
2022-11-16T12:54:32.326Z,12.18
2022-11-16T12:57:06.559Z,12.02
2022-11-16T12:59:59.603Z,11.70
2022-11-16T13:02:37.664Z,11.64
2022-11-16T13:05:16.318Z,11.90
2022-11-16T13:07:46.747Z,12.26
2022-11-16T13:10:19.555Z,12.33
2022-11-16T13:12:55.873Z,12.77
2022-11-16T13:15:37.093Z,12.75
2022-11-16T13:18:08.167Z,12.64
2022-11-16T13:20:45.930Z,12.55
2022-11-16T13:23:19.257Z,12.50
2022-11-16T13:25:52.091Z,12.45
2022-11-16T13:28:33.192Z,12.29
2022-11-16T13:31:05.875Z,11.91
2022-11-16T13:33:40.643Z,11.78
2022-11-16T13:36:43.593Z,12.03
2022-11-16T13:39:17.045Z,12.34
2022-11-16T13:41:50.147Z,12.35
2022-11-16T13:44:28.667Z,12.16
2022-11-16T13:46:59.651Z,11.84
2022-11-16T13:49:31.896Z,12.04
2022-11-16T13:52:17.183Z,11.90
2022-11-16T13:54:53.075Z,12.39
2022-11-16T13:57:25.222Z,12.00
2022-11-16T14:00:09.054Z,12.27
2022-11-16T14:02:38.586Z,12.28
2022-11-16T14:05:15.855Z,12.34
2022-11-16T14:07:47.218Z,12.21
2022-11-16T14:11:04.740Z,12.23
2022-11-16T14:13:40.157Z,12.46
2022-11-16T14:16:42.703Z,12.56
2022-11-16T14:19:43.776Z,12.29
2022-11-16T14:22:22.454Z,12.37
2022-11-16T14:24:58.847Z,12.57
2022-11-16T14:27:34.327Z,12.88
2022-11-16T14:30:06.595Z,13.07
2022-11-16T14:32:42.574Z,13.46
2022-11-16T14:35:28.568Z,13.44
2022-11-16T14:38:01.229Z,13.35
2022-11-16T14:40:31.568Z,13.07
2022-11-16T14:43:19.974Z,12.84
2022-11-16T14:45:50.031Z,12.27
2022-11-16T14:48:19.742Z,11.98
2022-11-16T14:51:01.263Z,12.01
2022-11-16T14:53:30.350Z,12.23
2022-11-16T14:56:09.853Z,12.44
2022-11-16T14:58:37.937Z,12.68
2022-11-16T15:01:08.782Z,12.75
2022-11-16T15:03:42.221Z,12.61
2022-11-16T15:06:10.244Z,12.66
2022-11-16T15:08:44.150Z,12.61
2022-11-16T15:11:23.864Z,12.73
2022-11-16T15:13:51.818Z,12.18
2022-11-16T15:16:21.170Z,11.39
2022-11-16T15:18:59.625Z,11.52
2022-11-16T15:21:27.819Z,11.66
2022-11-16T15:24:23.425Z,10.89
2022-11-16T15:26:45.111Z,11.16
2022-11-16T15:29:17.486Z,11.71
2022-11-16T15:31:45.488Z,11.51
2022-11-16T15:34:13.973Z,11.42
2022-11-16T15:36:42.171Z,11.61
2022-11-16T15:39:14.200Z,11.88
2022-11-16T15:41:42.508Z,11.91
2022-11-16T15:44:16.574Z,12.00
2022-11-16T15:46:47.922Z,11.43
2022-11-16T15:49:26.744Z,11.30
2022-11-16T15:51:54.275Z,11.42
2022-11-16T15:54:26.670Z,11.83
2022-11-16T15:56:56.585Z,11.96
2022-11-16T15:59:28.695Z,11.71
2022-11-16T16:01:57.092Z,11.25
2022-11-16T16:04:26.471Z,11.14
2022-11-16T16:06:55.820Z,11.03
2022-11-16T16:09:29.871Z,11.20
2022-11-16T16:12:13.153Z,11.11
2022-11-16T16:14:42.067Z,11.00
2022-11-16T16:17:11.503Z,10.79
2022-11-16T16:19:42.113Z,10.57
2022-11-16T16:22:15.712Z,10.70
2022-11-16T16:24:46.250Z,10.60
2022-11-16T16:27:18.631Z,10.65
2022-11-16T16:29:48.283Z,10.87
2022-11-16T16:32:23.739Z,11.08
2022-11-16T16:34:51.658Z,11.09
2022-11-16T16:37:19.230Z,10.97
2022-11-16T16:39:46.794Z,11.08
2022-11-16T16:42:16.476Z,11.10
2022-11-16T16:44:45.349Z,11.26
2022-11-16T16:47:14.789Z,11.32
2022-11-16T16:49:42.509Z,11.49
2022-11-16T16:52:12.949Z,11.60
2022-11-16T16:54:40.799Z,11.42
2022-11-16T16:57:14.161Z,11.37
2022-11-16T16:59:41.755Z,11.37
2022-11-16T17:02:10.947Z,11.63
2022-11-16T17:04:39.830Z,11.96
2022-11-16T17:07:07.464Z,12.08
2022-11-16T17:09:35.029Z,11.61
2022-11-16T17:12:02.762Z,11.59
2022-11-16T17:14:30.330Z,11.68
2022-11-16T17:16:57.927Z,11.67
2022-11-16T17:19:25.451Z,11.73
2022-11-16T17:21:54.317Z,12.14
2022-11-16T17:24:21.837Z,12.30
2022-11-16T17:26:49.448Z,12.13
2022-11-16T17:29:17.128Z,11.91
2022-11-16T17:31:44.854Z,11.57
2022-11-16T17:34:14.286Z,11.32
2022-11-16T17:36:42.055Z,11.39
2022-11-16T17:39:10.920Z,11.17
2022-11-16T17:41:38.762Z,10.92
2022-11-16T17:44:07.182Z,10.96
2022-11-16T17:46:34.704Z,10.47
2022-11-16T17:49:02.353Z,10.61
2022-11-16T17:51:30.517Z,10.77
2022-11-16T17:53:58.053Z,10.36
2022-11-16T17:56:28.203Z,10.46
2022-11-16T17:58:58.172Z,10.71
2022-11-16T18:01:27.073Z,10.63
2022-11-16T18:03:54.758Z,10.60
2022-11-16T18:06:23.875Z,10.58
2022-11-16T18:08:52.247Z,10.32
2022-11-16T18:11:21.067Z,10.69
2022-11-16T18:13:53.488Z,10.30
2022-11-16T18:16:24.100Z,10.31
2022-11-16T18:18:57.765Z,10.51
2022-11-16T18:21:25.963Z,10.43
2022-11-16T18:23:53.540Z,9.94
2022-11-16T18:26:23.340Z,10.13
2022-11-16T18:28:53.673Z,10.29
2022-11-16T18:31:22.995Z,10.30
2022-11-16T18:33:50.721Z,10.07
2022-11-16T18:36:19.454Z,9.73
2022-11-16T18:38:47.371Z,9.94
2022-11-16T18:41:19.560Z,10.22
2022-11-16T18:43:52.646Z,10.40
2022-11-16T18:46:21.043Z,10.52
2022-11-16T18:48:48.718Z,10.54
2022-11-16T18:51:17.153Z,10.68
2022-11-16T18:53:45.358Z,10.29
2022-11-16T18:56:13.240Z,10.51
2022-11-16T18:58:50.896Z,10.17
2022-11-16T19:01:22.453Z,9.59
2022-11-16T19:03:50.188Z,9.81
2022-11-16T19:06:18.399Z,9.88
2022-11-16T19:08:50.449Z,10.20
2022-11-16T19:11:23.943Z,10.20
2022-11-16T19:13:54.286Z,10.31
2022-11-16T19:16:24.991Z,10.21
2022-11-16T19:18:53.232Z,10.13
2022-11-16T19:21:21.783Z,9.97
2022-11-16T19:23:51.235Z,10.11
2022-11-16T19:26:20.544Z,10.07
2022-11-16T19:28:49.405Z,10.05
2022-11-16T19:31:19.115Z,9.77
2022-11-16T19:33:48.013Z,9.53
2022-11-16T19:36:17.127Z,9.40
2022-11-16T19:38:45.775Z,9.39
2022-11-16T19:41:14.669Z,9.60
2022-11-16T19:43:42.330Z,9.97
2022-11-16T19:46:11.824Z,10.27
2022-11-16T19:48:39.780Z,10.18
2022-11-16T19:51:10.826Z,10.51
2022-11-16T19:53:39.489Z,10.85
2022-11-16T19:56:09.480Z,10.96
2022-11-16T19:58:38.384Z,10.69
2022-11-16T20:01:07.928Z,10.38
2022-11-16T20:03:38.271Z,10.54
2022-11-16T20:06:10.017Z,10.27
2022-11-16T20:08:37.953Z,10.10
2022-11-16T20:11:12.382Z,9.65
2022-11-16T20:13:40.048Z,10.04
2022-11-16T20:16:09.531Z,10.18
2022-11-16T20:18:37.214Z,10.33
2022-11-16T20:21:06.332Z,10.11
2022-11-16T20:23:35.926Z,9.95
2022-11-16T20:26:07.947Z,9.92
2022-11-16T20:28:36.818Z,9.63
2022-11-16T20:31:05.333Z,9.41
2022-11-16T20:33:34.739Z,9.82
2022-11-16T20:36:03.363Z,9.87
2022-11-16T20:38:32.926Z,9.75
2022-11-16T20:41:09.885Z,9.72
2022-11-16T20:43:39.199Z,9.64
2022-11-16T20:46:07.366Z,10.09
2022-11-16T20:48:34.945Z,9.54
2022-11-16T20:51:03.003Z,9.32
2022-11-16T20:53:30.689Z,9.34
2022-11-16T20:55:58.407Z,9.60
2022-11-16T20:58:27.299Z,9.45
2022-11-16T21:00:54.940Z,9.45
2022-11-16T21:03:22.616Z,9.50
2022-11-16T21:05:52.624Z,9.43
2022-11-16T21:08:20.450Z,9.35
2022-11-16T21:10:48.628Z,9.86
2022-11-16T21:13:35.424Z,9.84
2022-11-16T21:16:06.639Z,9.56
2022-11-16T21:18:34.607Z,9.73
2022-11-16T21:21:02.925Z,9.67
2022-11-16T21:23:32.475Z,9.94
2022-11-16T21:26:03.180Z,9.79
2022-11-16T21:28:30.824Z,9.79
2022-11-16T21:30:59.953Z,9.47
2022-11-16T21:33:29.585Z,9.35
2022-11-16T21:35:57.240Z,9.78
2022-11-16T21:38:26.366Z,9.74
2022-11-16T21:40:53.949Z,9.55
2022-11-16T21:43:21.492Z,9.76
2022-11-16T21:45:49.418Z,9.61
2022-11-16T21:48:16.959Z,9.94
2022-11-16T21:50:45.835Z,10.02
2022-11-16T21:53:13.381Z,9.97
2022-11-16T21:55:40.914Z,10.41
2022-11-16T21:58:08.507Z,10.49
2022-11-16T22:00:36.043Z,10.63
2022-11-16T22:03:03.549Z,10.30
2022-11-16T22:05:48.610Z,10.29
2022-11-16T22:08:17.476Z,10.59
2022-11-16T22:10:50.455Z,10.64
2022-11-16T22:13:18.003Z,10.16
2022-11-16T22:15:45.540Z,10.45
2022-11-16T22:18:13.309Z,10.19
2022-11-16T22:20:41.172Z,10.12
2022-11-16T22:23:08.778Z,10.06
2022-11-16T22:25:38.842Z,10.36
2022-11-16T22:28:20.246Z,10.07
2022-11-16T22:30:51.746Z,10.28
2022-11-16T22:33:19.965Z,9.99
2022-11-16T22:35:47.793Z,9.86
2022-11-16T22:38:15.320Z,10.15
2022-11-16T22:40:49.567Z,10.10
2022-11-16T22:43:17.095Z,10.25
2022-11-16T22:45:44.639Z,9.90
2022-11-16T22:48:12.154Z,10.09
2022-11-16T22:50:39.734Z,10.30
2022-11-16T22:53:07.284Z,10.05
2022-11-16T22:55:35.773Z,9.63
2022-11-16T22:58:05.445Z,9.37
2022-11-16T23:00:38.932Z,9.12
2022-11-16T23:03:08.354Z,9.19
2022-11-16T23:05:35.916Z,9.11
2022-11-16T23:08:03.867Z,9.51
2022-11-16T23:10:51.391Z,9.41
2022-11-16T23:13:37.763Z,9.33
2022-11-16T23:16:05.752Z,9.00
2022-11-16T23:18:33.241Z,9.09
2022-11-16T23:21:18.565Z,9.39
2022-11-16T23:24:03.853Z,9.26
2022-11-16T23:26:48.997Z,9.48
2022-11-16T23:29:17.857Z,9.10
2022-11-16T23:31:45.385Z,8.86
2022-11-16T23:34:12.878Z,8.70
2022-11-16T23:36:40.395Z,8.79
2022-11-16T23:39:08.354Z,8.87
2022-11-16T23:41:53.386Z,8.72
2022-11-16T23:44:22.489Z,8.76
2022-11-16T23:46:50.011Z,8.79
2022-11-16T23:49:17.538Z,8.99
2022-11-16T23:51:45.055Z,8.80
2022-11-16T23:54:12.584Z,8.65
2022-11-16T23:56:40.070Z,8.87
2022-11-16T23:59:07.708Z,8.97
